createdAt,value
2022-09-07T00:00:42.010Z,90.80
2022-09-07T00:03:09.235Z,90.50
2022-09-07T00:05:43.226Z,90.50
2022-09-07T00:08:10.332Z,90.50
2022-09-07T00:10:37.306Z,90.60
2022-09-07T00:13:05.244Z,90.60
2022-09-07T00:15:32.429Z,90.70
2022-09-07T00:17:59.983Z,90.60
2022-09-07T00:23:12.031Z,90.50
2022-09-07T00:25:39.717Z,90.50
2022-09-07T00:28:08.186Z,90.60
2022-09-07T00:30:40.122Z,90.60
2022-09-07T00:33:06.897Z,90.70
2022-09-07T00:35:33.698Z,90.70
2022-09-07T00:38:00.525Z,90.70
2022-09-07T00:40:27.293Z,90.90
2022-09-07T00:42:54.039Z,90.60
2022-09-07T00:45:21.856Z,90.80
2022-09-07T00:48:03.291Z,90.60
2022-09-07T00:50:43.500Z,90.60
2022-09-07T00:53:10.223Z,90.60
2022-09-07T00:55:38.334Z,90.80
2022-09-07T00:58:07.165Z,91.00
2022-09-07T01:00:34.121Z,91.10
2022-09-07T01:03:02.086Z,90.90
2022-09-07T01:05:35.526Z,91.00
2022-09-07T01:08:03.152Z,90.90
2022-09-07T01:10:33.958Z,91.00
2022-09-07T01:13:00.966Z,90.90
2022-09-07T01:15:48.163Z,91.10
2022-09-07T01:18:50.224Z,91.10
2022-09-07T01:21:27.307Z,91.10
2022-09-07T01:24:01.858Z,91.10
2022-09-07T01:26:28.599Z,91.20
2022-09-07T01:29:24.041Z,91.20
2022-09-07T01:32:12.709Z,91.00
2022-09-07T01:34:41.798Z,91.00
2022-09-07T01:37:17.053Z,90.90
2022-09-07T01:39:55.950Z,90.80
2022-09-07T01:42:30.656Z,90.90
2022-09-07T01:45:03.463Z,90.80
2022-09-07T01:47:36.053Z,90.80
2022-09-07T01:50:16.177Z,90.70
2022-09-07T01:52:54.143Z,90.80
2022-09-07T01:55:36.517Z,90.60
2022-09-07T01:58:19.715Z,90.70
2022-09-07T02:00:53.841Z,90.80
2022-09-07T02:03:35.537Z,90.80
2022-09-07T02:06:10.245Z,90.80
2022-09-07T02:08:46.582Z,90.80
2022-09-07T02:11:43.985Z,91.00
2022-09-07T02:14:33.713Z,90.90
2022-09-07T02:17:03.617Z,91.00
2022-09-07T02:19:38.046Z,91.00
2022-09-07T02:22:13.578Z,91.20
2022-09-07T02:24:46.236Z,91.30
2022-09-07T02:27:26.797Z,91.10
2022-09-07T02:29:54.196Z,91.00
2022-09-07T02:32:21.063Z,91.20
2022-09-07T02:34:47.881Z,91.20
2022-09-07T02:37:17.081Z,91.40
2022-09-07T02:39:43.975Z,91.40
2022-09-07T02:42:10.816Z,91.50
2022-09-07T02:44:41.058Z,91.60
2022-09-07T02:47:20.580Z,91.70
2022-09-07T02:49:47.330Z,91.90
2022-09-07T02:52:40.685Z,91.80
2022-09-07T02:55:40.290Z,91.70
2022-09-07T02:58:13.130Z,91.70
2022-09-07T03:00:50.174Z,91.70
2022-09-07T03:03:33.424Z,91.70
2022-09-07T03:06:04.327Z,91.50
2022-09-07T03:08:31.225Z,91.70
2022-09-07T03:10:59.146Z,91.50
2022-09-07T03:13:28.419Z,91.60
2022-09-07T03:15:56.492Z,91.70
2022-09-07T03:18:25.283Z,91.60
2022-09-07T03:20:52.497Z,91.70
2022-09-07T03:23:19.340Z,91.30
2022-09-07T03:25:47.585Z,91.30
2022-09-07T03:28:14.471Z,91.40
2022-09-07T03:30:47.201Z,90.90
2022-09-07T03:33:16.015Z,91.00
2022-09-07T03:35:56.139Z,91.00
2022-09-07T03:38:22.981Z,90.70
2022-09-07T03:41:03.453Z,90.80
2022-09-07T03:43:31.082Z,90.70
2022-09-07T03:46:06.074Z,90.50
2022-09-07T03:48:34.590Z,90.50
2022-09-07T03:51:07.670Z,90.30
2022-09-07T03:53:37.166Z,90.20
2022-09-07T03:56:09.310Z,90.00
2022-09-07T03:58:36.406Z,89.50
2022-09-07T04:01:09.316Z,89.10
2022-09-07T04:03:36.834Z,84.50
2022-09-07T04:06:04.508Z,79.50
2022-09-07T04:08:33.662Z,75.80
2022-09-07T04:11:02.479Z,72.60
2022-09-07T04:13:30.503Z,70.60
2022-09-07T04:15:57.703Z,70.30
2022-09-07T04:18:25.239Z,68.80
2022-09-07T04:20:52.419Z,68.40
2022-09-07T04:23:20.149Z,67.20
2022-09-07T04:25:51.162Z,67.40
2022-09-07T04:28:19.536Z,66.50
2022-09-07T04:30:47.101Z,66.20
2022-09-07T04:33:14.213Z,65.70
2022-09-07T04:35:42.607Z,65.10
2022-09-07T04:38:13.925Z,64.80
2022-09-07T04:40:40.879Z,64.40
2022-09-07T04:43:09.588Z,63.60
2022-09-07T04:45:37.597Z,63.80
2022-09-07T04:48:05.440Z,63.20
2022-09-07T04:50:32.851Z,62.90
2022-09-07T04:52:59.781Z,63.00
2022-09-07T04:55:26.563Z,63.20
2022-09-07T04:57:53.388Z,63.20
2022-09-07T05:00:20.294Z,63.00
2022-09-07T05:02:47.282Z,62.70
2022-09-07T05:05:14.345Z,62.50
2022-09-07T05:07:41.234Z,62.80
2022-09-07T05:10:08.408Z,62.70
2022-09-07T05:12:35.351Z,62.90
2022-09-07T05:15:02.213Z,62.30
2022-09-07T05:17:31.116Z,62.10
2022-09-07T05:19:58.476Z,61.50
2022-09-07T05:22:25.405Z,61.60
2022-09-07T05:24:52.301Z,61.70
2022-09-07T05:27:19.386Z,61.90
2022-09-07T05:30:03.839Z,61.70
2022-09-07T05:32:32.219Z,61.50
2022-09-07T05:34:59.117Z,61.40
2022-09-07T05:37:25.928Z,61.20
2022-09-07T05:39:57.149Z,61.20
2022-09-07T05:42:24.241Z,61.10
2022-09-07T05:44:51.202Z,60.90
2022-09-07T05:47:18.065Z,60.50
2022-09-07T05:49:44.854Z,60.50
2022-09-07T05:52:11.747Z,60.70
2022-09-07T05:54:38.798Z,60.60
2022-09-07T05:57:07.303Z,60.10
2022-09-07T05:59:34.325Z,60.00
2022-09-07T06:02:01.506Z,59.90
2022-09-07T06:04:28.623Z,59.90
2022-09-07T06:12:29.299Z,59.70
2022-09-07T06:14:56.138Z,59.50
2022-09-07T06:17:22.909Z,59.80
2022-09-07T06:19:49.699Z,59.30
2022-09-07T06:22:16.483Z,59.40
2022-09-07T06:24:43.269Z,59.50
2022-09-07T06:27:10.196Z,59.30
2022-09-07T06:29:37.024Z,58.90
2022-09-07T06:34:51.063Z,58.50
2022-09-07T06:37:17.931Z,58.40
2022-09-07T06:39:44.806Z,58.50
2022-09-07T06:42:11.952Z,58.30
2022-09-07T06:44:38.907Z,58.60
2022-09-07T06:47:05.751Z,58.00
2022-09-07T06:49:32.626Z,57.20
2022-09-07T06:51:59.628Z,57.10
2022-09-07T06:57:13.290Z,57.30
2022-09-07T06:59:40.066Z,57.50
2022-09-07T07:02:08.173Z,57.60
2022-09-07T07:04:40.168Z,57.20
2022-09-07T07:07:11.833Z,57.00
2022-09-07T07:09:39.016Z,56.90
2022-09-07T07:12:06.252Z,57.10
2022-09-07T07:14:34.664Z,56.90
2022-09-07T07:17:03.535Z,56.90
2022-09-07T07:19:30.425Z,57.00
2022-09-07T07:24:44.064Z,56.40
2022-09-07T07:27:10.874Z,56.20
2022-09-07T07:29:37.654Z,56.30
2022-09-07T07:32:04.542Z,55.90
2022-09-07T07:34:31.326Z,56.00
2022-09-07T07:36:58.129Z,55.90
2022-09-07T07:42:12.429Z,56.10
2022-09-07T07:44:39.310Z,55.90
2022-09-07T07:47:06.206Z,55.90
2022-09-07T07:49:33.126Z,56.30
2022-09-07T07:54:46.957Z,56.10
2022-09-07T07:57:14.159Z,56.40
2022-09-07T07:59:40.897Z,56.00
2022-09-07T08:02:13.439Z,56.50
2022-09-07T08:04:40.345Z,56.40
2022-09-07T08:07:10.624Z,56.40
2022-09-07T08:09:43.083Z,55.40
2022-09-07T08:12:12.192Z,55.50
2022-09-07T08:14:43.231Z,56.20
2022-09-07T08:17:11.940Z,57.10
2022-09-07T08:19:39.022Z,57.40
2022-09-07T08:22:06.543Z,56.80
2022-09-07T08:24:33.491Z,55.40
2022-09-07T08:27:00.375Z,56.00
2022-09-07T08:29:27.411Z,56.60
2022-09-07T08:31:54.339Z,56.70
2022-09-07T08:34:21.968Z,57.40
2022-09-07T08:36:49.014Z,56.90
2022-09-07T08:39:15.857Z,57.10
2022-09-07T08:42:03.399Z,57.00
2022-09-07T08:44:38.661Z,56.70
2022-09-07T08:47:16.603Z,56.40
2022-09-07T08:50:01.348Z,56.00
2022-09-07T08:52:38.471Z,55.60
2022-09-07T08:55:21.433Z,56.00
2022-09-07T08:58:01.940Z,56.30
2022-09-07T09:00:29.780Z,56.30
2022-09-07T09:05:58.748Z,57.70
2022-09-07T09:08:31.587Z,58.20
2022-09-07T09:11:22.142Z,57.50
2022-09-07T09:14:02.398Z,57.00
2022-09-07T09:16:42.765Z,56.80
2022-09-07T09:19:35.197Z,56.80
2022-09-07T09:22:20.917Z,57.20
2022-09-07T09:25:03.096Z,57.40
2022-09-07T09:27:29.957Z,57.40
2022-09-07T09:29:56.703Z,57.50
2022-09-07T09:32:44.210Z,57.20
2022-09-07T09:35:16.155Z,56.80
2022-09-07T09:37:44.216Z,56.60
2022-09-07T09:40:21.484Z,56.90
2022-09-07T09:42:57.998Z,56.60
2022-09-07T09:45:29.044Z,56.70
2022-09-07T09:47:57.876Z,56.80
2022-09-07T09:53:34.271Z,57.40
2022-09-07T09:56:03.418Z,57.70
2022-09-07T10:01:27.138Z,56.80
2022-09-07T10:06:26.850Z,57.20
2022-09-07T10:09:00.170Z,57.50
2022-09-07T10:14:43.717Z,57.60
2022-09-07T10:17:21.405Z,57.40
2022-09-07T10:19:49.638Z,57.90
2022-09-07T10:22:32.130Z,58.60
2022-09-07T10:25:00.914Z,58.80
2022-09-07T10:27:27.630Z,58.70
2022-09-07T10:29:55.387Z,58.20
2022-09-07T10:32:30.838Z,58.80
2022-09-07T10:35:16.248Z,58.50
2022-09-07T10:38:11.525Z,58.20
2022-09-07T10:40:45.332Z,58.50
2022-09-07T10:43:32.421Z,57.90
2022-09-07T10:47:03.660Z,58.10
2022-09-07T10:49:36.527Z,57.90
2022-09-07T10:52:09.338Z,57.20
2022-09-07T10:54:59.237Z,56.90
2022-09-07T10:57:40.610Z,56.30
2022-09-07T11:00:18.607Z,56.10
2022-09-07T11:06:12.590Z,56.10
2022-09-07T11:09:17.544Z,55.80
2022-09-07T11:12:02.048Z,56.10
2022-09-07T11:14:37.170Z,56.10
2022-09-07T11:17:13.146Z,56.60
2022-09-07T11:19:55.395Z,56.20
2022-09-07T11:22:44.779Z,56.00
2022-09-07T11:25:30.388Z,55.90
2022-09-07T11:28:23.088Z,55.40
2022-09-07T11:31:00.040Z,56.00
2022-09-07T11:33:35.351Z,56.00
2022-09-07T11:36:12.164Z,56.20
2022-09-07T11:38:45.589Z,55.60
2022-09-07T11:41:29.531Z,55.60
2022-09-07T11:44:01.934Z,55.50
2022-09-07T11:46:32.516Z,55.20
2022-09-07T11:48:59.980Z,55.00
2022-09-07T11:51:39.979Z,55.60
2022-09-07T11:54:46.165Z,55.90
2022-09-07T11:57:15.859Z,55.20
2022-09-07T12:00:05.688Z,55.20
2022-09-07T12:03:00.279Z,55.30
2022-09-07T12:05:58.295Z,54.70
2022-09-07T12:08:54.122Z,54.30
2022-09-07T12:11:24.347Z,54.50
2022-09-07T12:14:15.344Z,54.60
2022-09-07T12:17:19.068Z,54.20
2022-09-07T12:19:46.184Z,54.30
2022-09-07T12:22:23.142Z,54.20
2022-09-07T12:24:51.375Z,54.30
2022-09-07T12:27:20.923Z,54.30
2022-09-07T12:29:50.227Z,54.40
2022-09-07T12:32:56.850Z,54.70
2022-09-07T12:35:33.400Z,54.30
2022-09-07T12:38:20.346Z,53.90
2022-09-07T12:40:47.082Z,54.00
2022-09-07T12:43:15.920Z,54.10
2022-09-07T12:45:42.664Z,54.10
2022-09-07T12:48:15.243Z,54.00
2022-09-07T12:51:13.235Z,54.40
2022-09-07T12:54:07.829Z,54.40
2022-09-07T12:57:34.935Z,54.40
2022-09-07T13:00:36.543Z,54.30
2022-09-07T13:03:49.425Z,54.10
2022-09-07T13:05:59.081Z,53.60
2022-09-07T13:08:47.246Z,53.80
2022-09-07T13:11:19.946Z,53.80
2022-09-07T13:14:16.287Z,54.00
2022-09-07T13:19:50.189Z,54.50
2022-09-07T13:22:35.487Z,54.60
2022-09-07T13:25:27.173Z,54.40
2022-09-07T13:28:06.094Z,54.70
2022-09-07T13:31:07.400Z,55.00
2022-09-07T13:33:42.732Z,55.00
2022-09-07T13:36:57.361Z,55.10
2022-09-07T13:39:24.398Z,54.80
2022-09-07T13:41:55.317Z,54.50
2022-09-07T13:44:29.142Z,54.70
2022-09-07T13:46:58.851Z,55.00
2022-09-07T13:49:50.450Z,55.20
2022-09-07T13:52:47.251Z,55.40
2022-09-07T13:55:37.045Z,55.20
2022-09-07T13:58:17.988Z,55.50
2022-09-07T14:00:54.097Z,55.20
2022-09-07T14:03:23.281Z,55.40
2022-09-07T14:06:10.019Z,55.30
2022-09-07T14:08:39.817Z,55.60
2022-09-07T14:11:18.269Z,55.80
2022-09-07T14:13:45.124Z,55.90
2022-09-07T14:16:11.994Z,56.00
2022-09-07T14:18:40.706Z,56.60
2022-09-07T14:21:09.605Z,56.50
2022-09-07T14:23:36.793Z,56.90
2022-09-07T14:26:22.502Z,57.10
2022-09-07T14:28:51.718Z,56.90
2022-09-07T14:31:21.056Z,56.90
2022-09-07T14:33:57.720Z,56.90
2022-09-07T14:36:44.645Z,56.60
2022-09-07T14:39:17.899Z,57.00
2022-09-07T14:41:45.181Z,57.60
2022-09-07T14:44:28.118Z,57.50
2022-09-07T14:46:57.310Z,57.60
2022-09-07T14:49:25.127Z,58.20
2022-09-07T14:51:53.862Z,58.10
2022-09-07T14:54:25.152Z,58.10
2022-09-07T14:57:30.497Z,58.70
2022-09-07T14:59:58.021Z,58.10
2022-09-07T15:02:36.757Z,58.20
2022-09-07T15:05:20.831Z,58.10
2022-09-07T15:07:51.803Z,58.50
2022-09-07T15:10:21.584Z,58.60
2022-09-07T15:12:50.434Z,58.70
2022-09-07T15:15:31.109Z,58.90
2022-09-07T15:18:07.442Z,59.00
2022-09-07T15:20:36.856Z,59.30
2022-09-07T15:23:11.259Z,58.80
2022-09-07T15:25:40.434Z,59.30
2022-09-07T15:29:08.167Z,58.70
2022-09-07T15:33:49.477Z,59.10
2022-09-07T15:36:17.286Z,58.90
2022-09-07T15:39:00.043Z,58.80
2022-09-07T15:41:27.647Z,59.20
2022-09-07T15:43:56.620Z,59.10
2022-09-07T15:46:25.021Z,59.10
2022-09-07T15:48:56.145Z,59.50
2022-09-07T15:54:13.813Z,59.70
2022-09-07T15:56:43.991Z,59.70
2022-09-07T15:59:30.017Z,60.30
2022-09-07T16:01:58.079Z,60.50
2022-09-07T16:04:25.372Z,60.90
2022-09-07T16:06:52.320Z,61.10
2022-09-07T16:09:21.854Z,61.60
2022-09-07T16:11:50.100Z,61.90
2022-09-07T16:14:17.701Z,62.00
2022-09-07T16:19:34.918Z,62.70
2022-09-07T16:22:03.214Z,62.90
2022-09-07T16:24:30.112Z,63.00
2022-09-07T16:26:57.005Z,63.50
2022-09-07T16:29:24.537Z,63.70
2022-09-07T16:34:39.709Z,64.60
2022-09-07T16:37:07.415Z,64.30
2022-09-07T16:39:34.632Z,64.60
2022-09-07T16:42:01.610Z,65.00
2022-09-07T16:44:28.552Z,64.60
2022-09-07T16:46:55.323Z,64.90
2022-09-07T16:49:22.690Z,65.20
2022-09-07T16:51:49.917Z,64.80
2022-09-07T16:54:17.894Z,64.70
2022-09-07T16:56:44.738Z,64.50
2022-09-07T16:59:16.583Z,64.00
2022-09-07T17:01:43.405Z,64.00
2022-09-07T17:04:11.533Z,64.40
2022-09-07T17:06:39.662Z,64.60
2022-09-07T17:09:06.867Z,64.30
2022-09-07T17:11:35.961Z,64.50
2022-09-07T17:14:05.122Z,64.50
2022-09-07T17:16:35.199Z,64.40
2022-09-07T17:21:53.762Z,63.80
2022-09-07T17:24:21.080Z,64.00
2022-09-07T17:26:48.239Z,64.20
2022-09-07T17:29:15.366Z,64.00
2022-09-07T17:34:30.461Z,64.20
2022-09-07T17:36:57.678Z,63.70
2022-09-07T17:39:24.566Z,63.40
2022-09-07T17:41:52.581Z,63.20
2022-09-07T17:44:20.158Z,63.20
2022-09-07T17:46:46.909Z,63.40
2022-09-07T17:49:16.556Z,63.70
2022-09-07T17:51:44.861Z,64.10
2022-09-07T17:54:17.501Z,63.90
2022-09-07T17:56:45.301Z,63.90
2022-09-07T18:01:59.676Z,63.60
2022-09-07T18:04:28.220Z,63.90
2022-09-07T18:06:55.230Z,64.10
2022-09-07T18:09:22.077Z,64.40
2022-09-07T18:11:49.845Z,64.40
2022-09-07T18:14:18.566Z,64.60
2022-09-07T18:16:46.993Z,64.60
2022-09-07T18:19:14.213Z,64.70
2022-09-07T18:21:42.802Z,64.90
2022-09-07T18:24:18.994Z,65.10
2022-09-07T18:26:51.495Z,65.10
2022-09-07T18:29:39.178Z,65.30
2022-09-07T18:32:09.717Z,65.40
2022-09-07T18:34:40.597Z,65.30
2022-09-07T18:37:08.634Z,65.20
2022-09-07T18:39:36.006Z,65.30
2022-09-07T18:42:03.273Z,65.40
2022-09-07T18:47:23.170Z,64.90
2022-09-07T18:49:54.882Z,64.70
2022-09-07T18:55:10.032Z,64.60
2022-09-07T18:57:37.313Z,64.90
2022-09-07T19:00:06.335Z,65.10
2022-09-07T19:02:33.597Z,65.40
2022-09-07T19:07:47.274Z,65.70
2022-09-07T19:10:16.418Z,65.70
2022-09-07T19:12:45.891Z,65.70
2022-09-07T19:15:13.638Z,65.40
2022-09-07T19:17:40.547Z,65.20
2022-09-07T19:20:07.854Z,65.20
2022-09-07T19:22:34.624Z,65.10
2022-09-07T19:25:01.485Z,65.10
2022-09-07T19:27:28.380Z,65.10
2022-09-07T19:29:55.147Z,65.00
2022-09-07T19:32:22.094Z,65.10
2022-09-07T19:34:54.370Z,65.00
2022-09-07T19:37:25.979Z,65.00
2022-09-07T19:39:55.141Z,65.20
2022-09-07T19:42:23.629Z,65.20
2022-09-07T19:44:51.065Z,65.20
2022-09-07T19:47:18.311Z,64.80
2022-09-07T19:49:45.176Z,65.10
2022-09-07T19:52:12.259Z,65.20
2022-09-07T19:54:39.402Z,64.60
2022-09-07T19:57:06.866Z,65.00
2022-09-07T19:59:33.664Z,65.20
2022-09-07T20:02:00.500Z,65.20
2022-09-07T20:04:28.241Z,65.30
2022-09-07T20:06:55.199Z,65.30
2022-09-07T20:09:21.975Z,65.50
2022-09-07T20:11:48.798Z,65.60
2022-09-07T20:14:16.471Z,65.40
2022-09-07T20:16:46.442Z,65.30
2022-09-07T20:19:15.423Z,65.00
2022-09-07T20:21:43.063Z,65.10
2022-09-07T20:24:14.689Z,65.40
2022-09-07T20:26:41.565Z,65.50
2022-09-07T20:29:26.575Z,65.50
2022-09-07T20:31:56.080Z,65.50
2022-09-07T20:34:23.043Z,65.60
2022-09-07T20:36:50.826Z,65.80
2022-09-07T20:39:18.353Z,65.90
2022-09-07T20:41:45.491Z,66.10
2022-09-07T20:44:12.749Z,66.10
2022-09-07T20:46:39.611Z,66.20
2022-09-07T20:49:07.029Z,66.10
2022-09-07T20:51:33.796Z,66.10
2022-09-07T20:54:00.758Z,65.90
2022-09-07T20:56:28.667Z,66.00
2022-09-07T20:58:57.750Z,66.00
2022-09-07T21:01:24.941Z,66.20
2022-09-07T21:03:53.896Z,66.40
2022-09-07T21:06:22.550Z,66.80
2022-09-07T21:08:50.587Z,66.90
2022-09-07T21:11:23.795Z,67.30
2022-09-07T21:13:58.809Z,67.50
2022-09-07T21:16:26.571Z,67.60
2022-09-07T21:18:58.280Z,67.50
2022-09-07T21:21:27.315Z,67.20
2022-09-07T21:23:59.682Z,67.00
2022-09-07T21:26:28.436Z,66.60
2022-09-07T21:28:59.762Z,66.40
2022-09-07T21:31:27.500Z,66.20
2022-09-07T21:33:59.641Z,66.20
2022-09-07T21:36:27.185Z,66.50
2022-09-07T21:38:54.766Z,66.80
2022-09-07T21:41:24.355Z,67.20
2022-09-07T21:44:02.794Z,67.20
2022-09-07T21:46:32.045Z,66.30
2022-09-07T21:48:59.859Z,66.30
2022-09-07T21:51:27.304Z,66.50
2022-09-07T21:53:55.553Z,66.40
2022-09-07T21:56:22.896Z,66.60
2022-09-07T21:58:55.146Z,66.60
2022-09-07T22:01:23.391Z,66.70
2022-09-07T22:04:04.520Z,66.90
2022-09-07T22:06:32.472Z,67.00
2022-09-07T22:09:00.667Z,66.80
2022-09-07T22:11:29.593Z,66.70
2022-09-07T22:14:01.883Z,66.80
2022-09-07T22:16:30.535Z,66.90
2022-09-07T22:18:57.561Z,67.10
2022-09-07T22:21:26.963Z,67.30
2022-09-07T22:23:57.325Z,67.30
2022-09-07T22:26:26.963Z,67.50
2022-09-07T22:28:54.446Z,67.60
2022-09-07T22:31:22.653Z,67.70
2022-09-07T22:33:50.483Z,67.70
2022-09-07T22:36:23.050Z,67.60
2022-09-07T22:38:53.023Z,67.20
2022-09-07T22:41:21.896Z,67.30
2022-09-07T22:43:50.939Z,67.80
2022-09-07T22:46:19.806Z,68.30
2022-09-07T22:48:46.815Z,68.20
2022-09-07T22:51:13.702Z,68.20
2022-09-07T22:53:41.773Z,68.10
2022-09-07T22:56:18.586Z,67.70
2022-09-07T22:58:47.423Z,67.60
2022-09-07T23:01:15.079Z,67.80
2022-09-07T23:03:43.134Z,68.20
2022-09-07T23:06:36.980Z,68.70
2022-09-07T23:09:07.425Z,68.50
2022-09-07T23:11:34.545Z,68.50
2022-09-07T23:14:04.468Z,69.00
2022-09-07T23:16:31.557Z,69.40
2022-09-07T23:18:59.458Z,70.50
2022-09-07T23:21:27.350Z,72.10
2022-09-07T23:23:56.818Z,72.50
2022-09-07T23:26:25.929Z,73.30
2022-09-07T23:28:54.067Z,73.30
2022-09-07T23:31:22.168Z,73.30
2022-09-07T23:33:49.388Z,73.50
2022-09-07T23:36:17.540Z,73.70
2022-09-07T23:38:45.573Z,73.70
2022-09-07T23:41:14.108Z,73.70
2022-09-07T23:43:41.215Z,73.60
2022-09-07T23:46:08.337Z,73.30
2022-09-07T23:48:35.087Z,73.40
2022-09-07T23:51:02.156Z,73.70
2022-09-07T23:53:28.932Z,73.80
2022-09-07T23:55:55.673Z,73.60
2022-09-07T23:58:23.415Z,72.80
